Time;durP1;ratioP1;P1;durP2;ratioP2;P2;SDS_P1;SDS_P2;PMS_P1;PMS_P2;Temp;Humidity;BMP_temperature;BMP_pressure;BME280_temperature;BME280_humidity;BME280_pressure;Samples;Min_cycle;Max_cycle;Signal;HPM_P1;HPM_P2
2021/05/23 00:00:27;;;;;;;8.95;5.87;;;;;;;8.64;75.33;100338.26;1703048;82;21734;-81
2021/05/23 00:02:57;;;;;;;8.15;5.87;;;;;;;8.68;75.39;100344.04;1703092;83;21531;-81
2021/05/23 00:05:27;;;;;;;8.83;5.10;;;;;;;8.72;75.44;100336.70;1700533;83;21087;-81
2021/05/23 00:07:56;;;;;;;6.60;4.12;;;;;;;8.75;75.32;100338.55;1705971;83;21633;-81
2021/05/23 00:10:24;;;;;;;8.70;4.60;;;;;;;8.74;75.24;100341.56;1709534;83;21073;-81
2021/05/23 00:12:53;;;;;;;9.48;3.60;;;;;;;8.75;75.23;100338.55;1708938;83;21748;-80
2021/05/23 00:15:27;;;;;;;4.50;3.92;;;;;;;8.76;75.15;100336.36;1705856;82;21049;-80
2021/05/23 00:17:53;;;;;;;;;;;;;;;8.73;75.09;100339.81;1707843;83;21104;-80
2021/05/23 00:20:20;;;;;;;14.55;4.05;;;;;;;8.68;75.15;100342.73;1707587;83;20651;-80
2021/05/23 00:22:47;;;;;;;8.50;3.72;;;;;;;8.63;75.08;100343.45;1705770;82;21099;-80
2021/05/23 00:25:17;;;;;;;7.05;3.80;;;;;;;8.57;75.17;100352.05;1701767;83;22319;-80
2021/05/23 00:27:44;;;;;;;6.62;3.70;;;;;;;8.53;75.28;100351.52;1696077;83;21108;-81
2021/05/23 00:30:12;;;;;;;7.92;4.25;;;;;;;8.49;75.34;100349.66;1703542;83;21068;-81
2021/05/23 00:32:39;;;;;;;6.47;4.37;;;;;;;8.45;75.37;100351.74;1708358;83;21049;-81
2021/05/23 00:35:07;;;;;;;8.53;4.05;;;;;;;8.42;75.48;100354.27;1710341;82;21174;-81
2021/05/23 00:37:34;;;;;;;7.40;4.40;;;;;;;8.42;75.64;100350.34;1705065;83;22292;-81
2021/05/23 00:40:01;;;;;;;9.28;4.15;;;;;;;8.41;75.76;100349.82;1704036;82;21049;-81
2021/05/23 00:42:28;;;;;;;7.37;4.00;;;;;;;8.43;75.98;100354.32;1705657;82;21067;-82
2021/05/23 00:44:54;;;;;;;5.00;3.87;;;;;;;8.46;76.04;100357.44;1710040;83;21124;-82
2021/05/23 00:47:21;;;;;;;6.53;3.80;;;;;;;8.52;76.20;100354.97;1708081;83;21092;-81
2021/05/23 00:49:48;;;;;;;9.18;4.20;;;;;;;8.57;76.20;100353.36;1704829;82;22324;-82
2021/05/23 00:52:15;;;;;;;6.87;3.95;;;;;;;8.63;76.23;100356.58;1700294;83;21134;-82
2021/05/23 00:54:42;;;;;;;6.08;3.95;;;;;;;8.68;76.22;100362.41;1702821;83;21148;-81
2021/05/23 00:57:09;;;;;;;8.60;4.40;;;;;;;8.68;76.13;100357.16;1702934;83;21218;-81
2021/05/23 00:59:35;;;;;;;7.45;4.60;;;;;;;8.73;76.16;100349.42;1701377;82;21108;-82
2021/05/23 01:02:27;;;;;;;7.87;4.30;;;;;;;8.78;76.12;100349.53;1706652;83;21764;-82
2021/05/23 01:04:56;;;;;;;7.17;4.30;;;;;;;8.81;76.13;100353.13;1706600;83;21095;-82
2021/05/23 01:07:23;;;;;;;7.55;4.78;;;;;;;8.85;76.18;100350.16;1704777;83;21111;-81
2021/05/23 01:09:49;;;;;;;10.58;5.25;;;;;;;8.90;76.24;100347.23;1709394;83;21141;-81
2021/05/23 01:12:27;;;;;;;7.70;4.85;;;;;;;8.97;76.25;100346.94;1702779;83;21091;-81
2021/05/23 01:14:58;;;;;;;10.13;5.05;;;;;;;9.03;76.26;100351.94;1712275;82;21740;-81
2021/05/23 01:17:33;;;;;;;7.53;4.47;;;;;;;8.96;76.25;100327.69;1701733;83;21739;-81
2021/05/23 01:20:08;;;;;;;6.58;4.25;;;;;;;9.15;76.37;100350.91;1703274;83;21573;-81
2021/05/23 01:22:41;;;;;;;5.35;3.45;;;;;;;9.22;76.46;100348.02;1711987;83;21259;-81
2021/05/23 01:25:18;;;;;;;4.15;2.90;;;;;;;9.33;76.63;100350.47;1701119;82;24917;-81
2021/05/23 01:27:47;;;;;;;5.15;3.45;;;;;;;9.43;76.72;100347.62;1704202;83;21760;-81
2021/05/23 01:30:25;;;;;;;4.33;3.17;;;;;;;9.57;76.83;100349.68;1711796;82;21562;-81
2021/05/23 01:32:58;;;;;;;7.08;2.87;;;;;;;9.68;76.84;100342.92;1712038;83;21107;-81
2021/05/23 01:35:34;;;;;;;6.55;3.08;;;;;;;9.78;76.79;100344.91;1709767;83;21088;-82
2021/05/23 01:38:12;;;;;;;5.67;2.85;;;;;;;9.88;76.76;100348.19;1703216;83;21037;-82
2021/05/23 01:40:39;;;;;;;5.53;2.77;;;;;;;9.98;76.70;100351.02;1699619;83;21758;-82
2021/05/23 01:43:09;;;;;;;107.90;46.40;;;;;;;10.05;76.66;100343.72;1704386;82;21112;-82
2021/05/23 01:45:37;;;;;;;44.48;22.95;;;;;;;10.13;76.56;100344.75;1702422;82;21088;-81
2021/05/23 01:48:06;;;;;;;32.23;17.23;;;;;;;10.19;76.48;100347.52;1707134;82;21368;-82
2021/05/23 01:50:33;;;;;;;40.35;21.48;;;;;;;10.26;76.38;100351.14;1678565;83;21119;-82
2021/05/23 01:53:01;;;;;;;31.12;18.10;;;;;;;10.30;76.30;100351.29;1710090;82;22502;-81
2021/05/23 01:55:29;;;;;;;41.75;22.82;;;;;;;10.36;76.29;100349.61;1708339;83;21111;-81
2021/05/23 01:57:56;;;;;;;37.23;20.55;;;;;;;10.41;76.15;100350.59;1705302;83;21092;-82
2021/05/23 02:00:27;;;;;;;45.50;22.90;;;;;;;10.48;76.11;100359.06;1706055;83;21131;-82
2021/05/23 02:02:53;;;;;;;65.15;32.17;;;;;;;10.53;76.08;100355.19;1703642;83;21097;-81
2021/05/23 02:05:20;;;;;;;116.05;62.15;;;;;;;10.56;76.01;100352.19;1708193;83;21677;-81
2021/05/23 02:07:47;;;;;;;47.70;25.70;;;;;;;10.61;75.96;100355.80;1712166;83;21084;-81
2021/05/23 02:10:17;;;;;;;51.55;29.30;;;;;;;10.64;75.92;100350.61;1711245;82;21095;-81
2021/05/23 02:12:45;;;;;;;31.77;20.10;;;;;;;10.66;75.86;100350.20;1701264;82;21099;-81
2021/05/23 02:15:17;;;;;;;37.00;25.97;;;;;;;10.72;75.82;100352.06;1703586;82;21135;-81
2021/05/23 02:17:45;;;;;;;17.60;11.65;;;;;;;10.75;75.77;100353.41;1709149;83;21743;-82
2021/05/23 02:20:17;;;;;;;16.48;10.85;;;;;;;10.78;75.69;100349.97;1711955;83;21119;-82
2021/05/23 02:23:05;;;;;;;19.30;11.18;;;;;;;10.80;75.66;100355.70;1701909;83;21105;-81
2021/05/23 02:25:30;;;;;;;13.53;9.10;;;;;;;10.83;75.65;100353.13;1660040;84;21244;-80
2021/05/23 02:28:01;;;;;;;37.00;26.27;;;;;;;10.90;75.61;100354.11;1655153;85;21160;-81
2021/05/23 02:30:34;;;;;;;19.20;12.75;;;;;;;10.90;75.48;100358.06;1610775;86;21746;-81
2021/05/23 02:33:00;;;;;;;19.95;13.65;;;;;;;10.92;75.48;100363.36;1656271;84;21071;-81
2021/05/23 02:35:28;;;;;;;16.97;11.53;;;;;;;10.96;75.46;100367.41;1670578;84;21119;-81
2021/05/23 02:37:58;;;;;;;17.98;12.43;;;;;;;10.97;75.37;100366.53;1664309;85;21141;-81
2021/05/23 02:40:28;;;;;;;16.17;11.15;;;;;;;10.98;75.32;100365.69;1669706;84;21108;-81
2021/05/23 02:42:53;;;;;;;10.60;6.37;;;;;;;11.01;75.30;100371.42;1651374;86;21728;-81
2021/05/23 02:45:20;;;;;;;15.20;11.68;;;;;;;11.02;75.22;100369.26;1657041;85;21187;-81
2021/05/23 02:47:48;;;;;;;13.25;9.70;;;;;;;11.01;75.16;100375.38;1673134;83;21174;-82
2021/05/23 02:50:21;;;;;;;15.98;10.18;;;;;;;11.00;75.13;100373.58;1656784;85;21174;-81
2021/05/23 02:52:48;;;;;;;16.10;12.85;;;;;;;10.99;75.15;100379.73;1675358;85;21399;-81
2021/05/23 02:55:16;;;;;;;10.03;7.78;;;;;;;11.00;75.08;100381.48;1709324;81;21843;-82
2021/05/23 02:57:48;;;;;;;9.45;7.22;;;;;;;11.02;75.08;100382.42;1710115;83;21107;-82
2021/05/23 03:00:22;;;;;;;8.58;6.83;;;;;;;11.04;75.06;100387.28;1712100;83;21088;-81
2021/05/23 03:02:57;;;;;;;8.03;6.12;;;;;;;11.08;75.02;100393.06;1703254;82;21455;-81
2021/05/23 03:05:26;;;;;;;12.13;4.87;;;;;;;11.13;75.04;100394.44;1711510;82;21088;-82
2021/05/23 03:07:55;;;;;;;8.70;6.25;;;;;;;11.20;75.10;100393.25;1703103;82;21822;-81
2021/05/23 03:10:25;;;;;;;5.90;3.58;;;;;;;11.27;74.98;100400.84;1711952;82;21661;-82
2021/05/23 03:12:52;;;;;;;6.28;4.10;;;;;;;11.28;74.86;100406.14;1702370;82;21165;-81
2021/05/23 03:15:22;;;;;;;5.47;3.67;;;;;;;11.28;74.81;100405.26;1701291;82;21143;-80
2021/05/23 03:17:49;;;;;;;5.58;4.37;;;;;;;11.22;74.62;100407.36;1705120;83;22345;-80
2021/05/23 03:20:16;;;;;;;8.08;4.30;;;;;;;11.17;74.61;100412.09;1702474;83;21730;-80
2021/05/23 03:22:46;;;;;;;6.40;3.47;;;;;;;11.12;74.64;100408.05;1706804;81;21128;-81
2021/05/23 03:25:14;;;;;;;4.85;3.77;;;;;;;11.07;74.63;100403.13;1709000;82;21091;-81
2021/05/23 03:27:41;;;;;;;6.62;5.70;;;;;;;11.08;74.72;100412.81;1710655;82;21447;-81
2021/05/23 03:30:13;;;;;;;9.08;5.45;;;;;;;11.08;74.77;100413.69;1709166;82;21083;-81
2021/05/23 03:32:40;;;;;;;11.55;5.70;;;;;;;11.09;74.85;100408.89;1705133;83;21756;-81
2021/05/23 03:35:08;;;;;;;8.25;5.90;;;;;;;11.12;74.84;100416.39;1707620;83;21672;-81
2021/05/23 03:37:36;;;;;;;13.98;8.00;;;;;;;11.14;74.86;100414.23;1672861;83;21016;-81
2021/05/23 03:40:06;;;;;;;7.58;4.58;;;;;;;11.16;74.87;100418.21;1703668;83;21125;-81
2021/05/23 03:42:32;;;;;;;10.28;5.62;;;;;;;11.20;74.84;100421.34;1712481;82;21053;-80
2021/05/23 03:44:59;;;;;;;6.60;5.12;;;;;;;11.22;74.82;100419.22;1708820;82;21678;-82
2021/05/23 03:47:26;;;;;;;7.75;3.98;;;;;;;11.25;74.76;100417.05;1707597;83;21124;-81
2021/05/23 03:49:53;;;;;;;6.53;4.72;;;;;;;11.30;74.81;100423.30;1711722;82;21069;-81
2021/05/23 03:52:20;;;;;;;5.22;4.22;;;;;;;11.36;74.78;100420.75;1704914;83;21142;-81
2021/05/23 03:54:56;;;;;;;5.65;4.53;;;;;;;11.45;74.86;100421.34;1703649;83;21135;-82
2021/05/23 03:57:27;;;;;;;6.72;3.52;;;;;;;11.55;74.81;100425.88;1708470;82;21793;-81
2021/05/23 03:59:53;;;;;;;5.67;2.60;;;;;;;11.68;74.79;100425.65;1711786;83;21092;-82
2021/05/23 04:02:22;;;;;;;4.72;3.00;;;;;;;11.79;74.74;100428.02;1700335;83;21136;-81
2021/05/23 04:04:53;;;;;;;4.12;2.60;;;;;;;11.88;74.61;100429.91;1708560;83;21688;-82
2021/05/23 04:07:19;;;;;;;3.42;2.62;;;;;;;11.98;74.51;100424.36;1702838;82;21661;-81
2021/05/23 04:09:47;;;;;;;3.27;2.80;;;;;;;12.04;74.38;100427.95;1703067;82;21758;-81
2021/05/23 04:12:18;;;;;;;4.25;3.37;;;;;;;12.06;74.18;100430.62;1707222;83;21875;-81
2021/05/23 04:14:43;;;;;;;7.25;3.17;;;;;;;12.09;74.21;100433.72;1699350;83;21029;-81
2021/05/23 04:17:10;;;;;;;4.10;2.40;;;;;;;12.14;74.19;100438.64;1707560;83;21647;-81
2021/05/23 04:19:37;;;;;;;3.10;2.22;;;;;;;12.23;74.16;100437.00;1700110;83;21294;-81
2021/05/23 04:22:04;;;;;;;4.33;3.00;;;;;;;12.35;74.16;100435.39;1702639;83;21705;-81
2021/05/23 04:24:35;;;;;;;5.03;2.70;;;;;;;12.54;74.14;100435.20;1709724;82;21264;-82
2021/05/23 04:27:01;;;;;;;3.15;2.33;;;;;;;12.73;74.04;100437.63;1705957;83;21618;-81
2021/05/23 04:29:44;;;;;;;3.00;2.08;;;;;;;13.05;74.10;100439.72;1707611;81;21143;-82
2021/05/23 04:32:11;;;;;;;6.65;2.05;;;;;;;13.62;74.70;100439.79;1703361;83;21072;-81
2021/05/23 04:34:38;;;;;;;3.50;1.75;;;;;;;15.13;75.01;100436.54;1711843;82;21796;-81
2021/05/23 04:37:05;;;;;;;3.72;1.80;;;;;;;16.43;74.50;100431.96;1711217;83;21162;-81
2021/05/23 04:39:32;;;;;;;2.20;1.65;;;;;;;18.27;73.77;100436.34;1707023;82;21109;-82
2021/05/23 04:41:59;;;;;;;4.05;1.60;;;;;;;19.40;69.95;100430.34;1699214;83;21151;-81
2021/05/23 04:44:39;;;;;;;2.55;1.82;;;;;;;19.34;66.99;100433.99;1699481;81;21124;-82
2021/05/23 04:47:09;;;;;;;3.67;1.70;;;;;;;18.85;65.66;100433.41;1706522;82;21320;-82
2021/05/23 04:49:39;;;;;;;3.22;1.77;;;;;;;18.36;64.99;100435.36;1701426;82;21570;-81
2021/05/23 04:52:07;;;;;;;6.28;1.90;;;;;;;18.02;64.86;100429.96;1706663;82;21182;-81
2021/05/23 04:54:34;;;;;;;2.10;1.40;;;;;;;18.00;65.25;100437.52;1701846;83;21115;-82
2021/05/23 04:57:01;;;;;;;2.87;1.60;;;;;;;18.27;65.06;100441.67;1695196;83;21169;-80
2021/05/23 04:59:28;;;;;;;1.98;1.30;;;;;;;18.38;64.57;100440.22;1703102;83;21597;-82
2021/05/23 05:01:55;;;;;;;2.55;1.52;;;;;;;18.99;65.11;100446.53;1696268;83;21530;-82
2021/05/23 05:04:22;;;;;;;1.82;1.30;;;;;;;19.54;64.06;100440.34;1709627;83;21628;-81
2021/05/23 05:06:49;;;;;;;1.35;1.22;;;;;;;20.00;62.60;100448.02;1700079;83;21205;-83
2021/05/23 05:09:37;;;;;;;3.47;1.30;;;;;;;19.81;61.39;100436.80;1725610;80;21056;-84
2021/05/23 05:12:06;;;;;;;2.83;1.42;;;;;;;20.83;64.21;100440.13;1742706;80;22602;-89
2021/05/23 05:14:35;;;;;;;3.85;1.42;;;;;;;22.87;63.25;100445.97;1706575;82;21468;-89
2021/05/23 05:17:06;;;;;;;4.60;1.65;;;;;;;25.30;61.22;100443.25;1707542;83;21076;-89
2021/05/23 05:19:34;;;;;;;2.90;1.20;;;;;;;27.45;59.19;100446.19;1700109;83;21065;-91
2021/05/23 05:22:01;;;;;;;2.05;1.30;;;;;;;29.38;56.58;100442.17;1677176;84;21089;-91
2021/05/23 05:24:28;;;;;;;1.65;1.00;;;;;;;29.84;51.92;100448.94;1709101;83;21800;-91
2021/05/23 05:27:35;;;;;;;2.70;1.30;;;;;;;29.01;49.46;100454.59;1682010;83;21050;-91
2021/05/23 05:30:15;;;;;;;2.33;1.27;;;;;;;27.39;48.08;100459.53;1601937;88;21210;-91
2021/05/23 05:32:45;;;;;;;2.22;1.42;;;;;;;25.27;47.91;100460.42;1629334;86;21038;-91
2021/05/23 05:35:15;;;;;;;2.05;1.30;;;;;;;23.95;47.96;100477.42;1628806;86;21649;-89
2021/05/23 05:37:49;;;;;;;1.17;0.90;;;;;;;22.73;48.69;100475.02;1623859;88;21702;-90
2021/05/23 05:40:18;;;;;;;2.17;1.42;;;;;;;21.80;49.29;100472.66;1596163;88;21116;-90
2021/05/23 05:42:44;;;;;;;1.25;1.02;;;;;;;20.96;49.69;100483.08;1613371;88;21595;-90
2021/05/23 05:45:14;;;;;;;3.10;1.40;;;;;;;20.11;50.10;100485.23;1616303;88;21174;-89
2021/05/23 05:47:43;;;;;;;4.62;1.50;;;;;;;19.36;50.66;100483.34;1622210;88;21165;-90
2021/05/23 05:50:13;;;;;;;2.47;1.50;;;;;;;18.76;51.39;100489.03;1614293;88;21796;-85
2021/05/23 05:52:42;;;;;;;3.50;1.40;;;;;;;18.40;52.18;100490.38;1617718;88;21842;-84
2021/05/23 05:55:11;;;;;;;2.52;1.30;;;;;;;18.21;52.83;100485.70;1625774;87;21140;-85
2021/05/23 05:57:37;;;;;;;3.08;1.30;;;;;;;18.11;53.22;100489.34;1632883;87;21754;-84
2021/05/23 06:00:06;;;;;;;4.17;1.50;;;;;;;17.92;53.38;100496.63;1661118;83;21677;-84
2021/05/23 06:02:33;;;;;;;2.20;1.60;;;;;;;17.71;53.62;100500.34;1709587;83;21738;-85
2021/05/23 06:04:59;;;;;;;3.92;1.92;;;;;;;17.57;53.93;100494.69;1708955;83;21239;-85
2021/05/23 06:07:26;;;;;;;2.72;1.20;;;;;;;17.43;54.02;100489.45;1711453;82;21642;-84
2021/05/23 06:09:53;;;;;;;3.25;1.55;;;;;;;17.40;54.25;100490.82;1713637;83;21578;-85
2021/05/23 06:12:20;;;;;;;3.75;1.77;;;;;;;17.35;54.34;100498.40;1709142;83;21085;-84
2021/05/23 06:14:48;;;;;;;2.35;1.30;;;;;;;17.30;54.67;100499.74;1719584;83;22332;-84
2021/05/23 06:17:27;;;;;;;2.85;1.32;;;;;;;17.47;55.01;100495.63;1710198;82;21163;-84
2021/05/23 06:19:54;;;;;;;2.75;1.30;;;;;;;17.69;54.99;100501.68;1713353;83;21143;-86
2021/05/23 06:22:21;;;;;;;3.08;1.22;;;;;;;17.84;54.64;100497.58;1714479;83;21634;-84
2021/05/23 06:24:48;;;;;;;6.37;1.98;;;;;;;17.94;54.46;100506.36;1715539;83;21579;-87
2021/05/23 06:27:36;;;;;;;4.12;1.90;;;;;;;17.90;54.05;100496.64;1711428;83;21747;-83
2021/05/23 06:30:02;;;;;;;2.65;1.40;;;;;;;17.94;54.37;100501.03;1721053;81;22274;-81
2021/05/23 06:32:28;;;;;;;2.37;1.42;;;;;;;18.12;54.22;100505.78;1733336;80;21079;-81
2021/05/23 06:34:55;;;;;;;2.40;1.30;;;;;;;18.33;54.30;100502.00;1737344;80;21654;-81
2021/05/23 06:37:24;;;;;;;4.95;1.32;;;;;;;18.62;54.17;100505.67;1703743;83;21098;-81
2021/05/23 06:39:50;;;;;;;2.92;1.87;;;;;;;18.89;53.80;100506.26;1701287;82;21748;-81
2021/05/23 06:42:18;;;;;;;2.75;1.10;;;;;;;19.09;53.39;100513.97;1721305;81;21112;-81
2021/05/23 06:44:45;;;;;;;2.58;1.40;;;;;;;19.09;52.89;100516.21;1719015;81;21127;-81
2021/05/23 06:47:12;;;;;;;3.30;1.25;;;;;;;18.95;52.26;100511.50;1710759;83;21194;-82
2021/05/23 06:49:39;;;;;;;2.90;1.30;;;;;;;18.74;52.27;100527.30;1718398;81;21111;-80
2021/05/23 06:52:06;;;;;;;4.80;1.17;;;;;;;18.64;52.18;100526.53;1742783;81;22551;-85
2021/05/23 06:54:33;;;;;;;3.08;1.25;;;;;;;18.62;52.19;100529.20;1745566;81;21072;-84
2021/05/23 06:57:00;;;;;;;3.80;2.60;;;;;;;18.48;51.83;100531.14;1741066;81;21558;-84
2021/05/23 06:59:27;;;;;;;2.55;1.52;;;;;;;18.28;51.84;100534.46;1741529;81;21119;-84
2021/05/23 07:01:54;;;;;;;2.40;1.32;;;;;;;18.08;51.89;100536.01;1740617;81;21120;-82
2021/05/23 07:04:21;;;;;;;2.02;1.05;;;;;;;17.95;52.19;100545.88;1746853;81;21981;-83
2021/05/23 07:06:48;;;;;;;2.55;1.52;;;;;;;17.85;52.43;100543.30;1742370;81;21120;-83
2021/05/23 07:09:16;;;;;;;2.12;1.17;;;;;;;17.82;52.28;100541.07;1744217;81;21140;-83
2021/05/23 07:11:43;;;;;;;2.80;1.00;;;;;;;17.98;52.38;100552.06;1745065;81;21633;-85
2021/05/23 07:14:12;;;;;;;3.62;1.72;;;;;;;18.20;52.56;100559.84;1746998;81;21719;-83
2021/05/23 07:16:39;;;;;;;1.40;0.70;;;;;;;18.62;52.43;100551.00;1721881;81;21736;-85
2021/05/23 07:19:06;;;;;;;2.50;1.15;;;;;;;18.93;52.19;100558.19;1711052;82;21145;-85
2021/05/23 07:21:34;;;;;;;3.12;1.40;;;;;;;18.95;51.63;100560.84;1700513;83;21270;-86
2021/05/23 07:24:01;;;;;;;1.80;1.30;;;;;;;18.92;51.56;100564.45;1709208;82;21173;-84
2021/05/23 07:26:28;;;;;;;4.10;1.75;;;;;;;18.84;51.20;100569.88;1714429;82;21087;-83
2021/05/23 07:28:55;;;;;;;2.52;1.10;;;;;;;18.84;51.11;100584.97;1709820;82;21262;-84
2021/05/23 07:31:21;;;;;;;1.35;1.20;;;;;;;18.95;51.00;100579.05;1710727;83;21142;-83
2021/05/23 07:33:48;;;;;;;2.77;0.93;;;;;;;19.26;50.94;100583.11;1708303;82;21111;-83
2021/05/23 07:36:15;;;;;;;4.45;1.35;;;;;;;19.56;50.59;100581.36;1695695;82;21110;-83
2021/05/23 07:38:42;;;;;;;2.87;0.90;;;;;;;19.75;49.92;100587.80;1711520;83;21098;-83
2021/05/23 07:41:09;;;;;;;3.55;1.20;;;;;;;19.95;49.76;100595.48;1710975;83;21710;-83
2021/05/23 07:43:36;;;;;;;3.47;1.10;;;;;;;20.09;49.41;100601.48;1710416;83;21208;-83
2021/05/23 07:46:03;;;;;;;2.40;1.00;;;;;;;20.22;49.09;100602.63;1711448;82;21034;-83
2021/05/23 07:48:30;;;;;;;2.55;1.22;;;;;;;20.35;48.77;100601.50;1710994;82;21651;-80
2021/05/23 07:58:12;;;;;;;2.35;1.07;;;;;;;21.11;47.87;100605.84;1519408;93;22025;-88
2021/05/23 08:00:40;;;;;;;2.42;1.12;;;;;;;21.05;47.09;100609.99;1531090;90;21296;-83
2021/05/23 08:03:07;;;;;;;1.82;0.98;;;;;;;20.83;46.84;100612.21;1551264;91;21168;-83
2021/05/23 08:05:34;;;;;;;2.70;1.10;;;;;;;20.63;46.90;100616.63;1525042;92;21324;-83
2021/05/23 08:08:01;;;;;;;1.92;1.17;;;;;;;20.50;46.52;100619.06;1526822;93;21782;-82
2021/05/23 08:10:27;;;;;;;2.30;1.20;;;;;;;20.48;46.73;100626.23;1516773;93;21210;-83
2021/05/23 08:12:54;;;;;;;2.65;0.95;;;;;;;20.59;46.54;100632.27;1486350;94;21210;-83
2021/05/23 08:15:21;;;;;;;2.12;1.10;;;;;;;20.68;46.17;100635.24;1529237;92;21139;-83
2021/05/23 08:17:52;;;;;;;2.22;1.05;;;;;;;20.74;45.86;100629.77;1510809;94;21745;-83
2021/05/23 08:20:17;;;;;;;1.67;0.85;;;;;;;20.77;45.71;100631.94;1528867;92;21819;-83
2021/05/23 08:22:44;;;;;;;2.08;0.93;;;;;;;20.75;45.45;100639.58;1527332;92;21088;-83
2021/05/23 08:25:11;;;;;;;2.15;1.00;;;;;;;20.67;45.60;100637.05;1526919;92;21151;-83
2021/05/23 08:27:38;;;;;;;2.35;0.98;;;;;;;20.63;45.48;100639.78;1486894;94;21721;-83
2021/05/23 08:30:07;;;;;;;2.80;1.22;;;;;;;20.59;45.61;100635.81;1506885;93;21153;-84
2021/05/23 08:32:34;;;;;;;2.55;1.27;;;;;;;20.73;45.75;100643.61;1522884;93;21815;-83
2021/05/23 08:35:01;;;;;;;2.37;1.10;;;;;;;20.84;45.55;100649.23;1562033;85;21748;-83
2021/05/23 08:37:28;;;;;;;1.92;1.20;;;;;;;20.93;45.17;100657.09;1652519;86;21192;-84
2021/05/23 08:39:54;;;;;;;2.98;1.05;;;;;;;20.88;44.59;100654.48;1657038;86;21156;-83
2021/05/23 08:42:21;;;;;;;1.02;0.95;;;;;;;20.84;44.53;100658.59;1655571;85;21131;-84
2021/05/23 08:44:49;;;;;;;1.82;1.10;;;;;;;20.78;44.79;100659.59;1712790;83;21784;-83
2021/05/23 08:47:16;;;;;;;2.30;0.78;;;;;;;20.69;44.72;100665.98;1713223;82;21080;-83
2021/05/23 08:49:43;;;;;;;3.58;1.15;;;;;;;20.63;44.54;100665.19;1721851;82;21592;-84
2021/05/23 08:52:11;;;;;;;4.12;1.05;;;;;;;20.67;44.84;100673.62;1708164;82;21256;-83
2021/05/23 08:54:41;;;;;;;2.42;1.12;;;;;;;20.70;44.62;100673.11;1712015;83;21567;-83
2021/05/23 08:57:08;;;;;;;2.75;1.37;;;;;;;20.70;44.41;100681.13;1716618;82;21856;-83
2021/05/23 08:59:35;;;;;;;1.55;1.00;;;;;;;20.62;44.37;100688.39;1712195;83;21217;-83
2021/05/23 09:02:07;;;;;;;1.45;1.00;;;;;;;20.64;44.62;100681.22;1715850;83;21147;-83
2021/05/23 09:04:34;;;;;;;2.87;1.07;;;;;;;20.64;44.55;100679.88;1722007;82;21104;-83
2021/05/23 09:07:04;;;;;;;1.72;0.88;;;;;;;20.61;44.42;100681.73;1716473;82;21625;-83
2021/05/23 09:09:32;;;;;;;2.15;1.07;;;;;;;20.65;44.38;100687.47;1716374;82;22856;-83
2021/05/23 09:12:04;;;;;;;3.72;1.30;;;;;;;20.65;44.29;100684.33;1678949;83;21183;-83
2021/05/23 09:14:37;;;;;;;1.47;0.98;;;;;;;20.61;43.95;100689.31;1714085;83;21129;-83
2021/05/23 09:17:05;;;;;;;3.52;0.80;;;;;;;20.61;44.01;100697.34;1714871;82;21073;-84
2021/05/23 09:19:41;;;;;;;2.20;1.00;;;;;;;20.62;43.85;100692.40;1716169;83;21084;-83
2021/05/23 09:22:12;;;;;;;2.83;1.17;;;;;;;20.50;43.68;100689.45;1719828;82;21697;-83
2021/05/23 09:24:49;;;;;;;3.55;1.20;;;;;;;20.49;43.84;100696.16;1716475;82;21714;-83
2021/05/23 09:27:16;;;;;;;1.60;1.10;;;;;;;20.62;43.63;100701.77;1704994;83;21112;-83
2021/05/23 09:29:43;;;;;;;2.00;1.60;;;;;;;20.86;43.55;100696.90;1716111;82;21483;-83
2021/05/23 09:32:19;;;;;;;2.05;1.00;;;;;;;21.06;43.23;100701.42;1681923;83;21128;-83
2021/05/23 09:34:49;;;;;;;2.55;1.07;;;;;;;21.13;42.43;100711.11;1712652;83;21728;-83
2021/05/23 09:37:16;;;;;;;1.70;1.02;;;;;;;20.98;42.14;100712.70;1721372;82;21399;-83
2021/05/23 09:39:43;;;;;;;1.47;0.80;;;;;;;20.93;42.23;100713.27;1720289;83;21064;-84
2021/05/23 09:42:12;;;;;;;2.62;0.70;;;;;;;20.97;42.21;100717.19;1708499;83;21086;-83
2021/05/23 09:44:39;;;;;;;4.75;1.42;;;;;;;21.14;42.41;100714.66;1680618;83;21096;-83
2021/05/23 09:47:13;;;;;;;2.17;1.00;;;;;;;21.22;42.21;100714.04;1718756;83;21793;-84
2021/05/23 09:49:55;;;;;;;2.98;0.95;;;;;;;21.13;42.07;100723.15;1716057;82;21135;-83
2021/05/23 09:52:18;;;;;;;1.30;0.82;;;;;;;21.07;42.15;100719.23;1711578;82;21088;-83
2021/05/23 09:54:51;;;;;;;2.22;1.30;;;;;;;20.98;42.16;100715.38;1716000;82;21067;-83
2021/05/23 09:57:22;;;;;;;1.52;0.80;;;;;;;20.86;42.21;100720.52;1717163;82;21099;-83
2021/05/23 10:00:04;;;;;;;1.75;0.80;;;;;;;20.84;42.53;100710.30;1716174;83;22394;-82
2021/05/23 10:02:31;;;;;;;1.67;0.80;;;;;;;20.79;42.33;100706.81;1713679;82;21084;-83
2021/05/23 10:05:06;;;;;;;3.42;1.00;;;;;;;20.65;41.93;100712.42;1719898;82;21100;-83
2021/05/23 10:07:34;;;;;;;3.12;1.50;;;;;;;20.58;41.97;100714.73;1719910;82;21148;-84
2021/05/23 10:10:03;;;;;;;2.02;0.90;;;;;;;20.58;42.01;100720.95;1712458;82;21080;-83
2021/05/23 10:12:33;;;;;;;3.45;1.20;;;;;;;20.65;42.08;100732.48;1693906;82;21747;-83
2021/05/23 10:15:00;;;;;;;5.33;2.33;;;;;;;20.68;41.89;100728.39;1690025;84;21182;-83
2021/05/23 10:17:28;;;;;;;2.72;1.07;;;;;;;20.64;41.74;100734.70;1686304;84;21596;-86
2021/05/23 10:19:57;;;;;;;2.37;1.10;;;;;;;20.49;41.92;100730.92;1708800;82;21195;-85
2021/05/23 10:22:23;;;;;;;1.92;0.90;;;;;;;20.40;42.08;100738.63;1678146;83;21099;-85
2021/05/23 10:24:58;;;;;;;3.35;1.52;;;;;;;20.52;42.16;100738.91;1711449;82;21802;-84
2021/05/23 10:27:32;;;;;;;1.65;0.72;;;;;;;20.72;41.83;100737.25;1701761;83;21061;-86
2021/05/23 10:30:01;;;;;;;1.12;0.80;;;;;;;20.88;42.02;100738.75;1685562;83;21086;-86
2021/05/23 10:32:32;;;;;;;2.12;1.35;;;;;;;21.11;41.67;100736.11;1663143;83;21661;-86
2021/05/23 10:35:13;;;;;;;1.72;0.88;;;;;;;21.19;41.50;100732.86;1694146;83;21062;-86
2021/05/23 10:37:41;;;;;;;3.05;0.80;;;;;;;21.11;41.40;100734.31;1697690;83;22561;-85
2021/05/23 10:40:24;;;;;;;3.17;0.88;;;;;;;20.91;41.27;100742.73;1693035;82;21103;-86
2021/05/23 10:42:54;;;;;;;1.15;0.80;;;;;;;20.82;41.28;100742.88;1684629;82;21063;-87
2021/05/23 10:45:30;;;;;;;2.37;1.10;;;;;;;20.89;41.27;100749.90;1700489;82;21250;-88
2021/05/23 10:47:57;;;;;;;2.10;0.88;;;;;;;20.92;41.18;100750.29;1684606;83;21025;-88
2021/05/23 10:50:33;;;;;;;1.98;1.02;;;;;;;20.93;40.85;100753.41;1720522;82;21715;-88
2021/05/23 10:53:00;;;;;;;1.47;0.88;;;;;;;20.72;40.55;100753.30;1679457;82;21646;-88
2021/05/23 10:55:27;;;;;;;1.65;0.72;;;;;;;20.41;40.51;100749.77;1678698;82;21154;-88
2021/05/23 10:58:01;;;;;;;2.67;0.70;;;;;;;20.30;40.49;100752.59;1685998;84;21254;-88
2021/05/23 11:00:39;;;;;;;0.75;0.60;;;;;;;20.39;40.79;100751.12;1660975;83;21107;-87
2021/05/23 11:03:14;;;;;;;2.05;0.80;;;;;;;20.59;40.56;100759.30;1672363;84;21100;-89
2021/05/23 11:05:43;;;;;;;3.33;1.07;;;;;;;20.84;40.28;100755.78;1681743;84;21090;-84
2021/05/23 11:08:14;;;;;;;2.08;0.90;;;;;;;21.04;39.76;100764.80;1663538;83;21641;-85
2021/05/23 11:10:44;;;;;;;0.78;0.57;;;;;;;21.13;39.60;100764.64;1669844;84;21073;-86
2021/05/23 11:13:14;;;;;;;7.33;5.97;;;;;;;21.19;39.71;100766.75;1673825;84;21164;-86
2021/05/23 11:15:47;;;;;;;3.62;1.30;;;;;;;21.16;39.33;100767.70;1681017;84;22308;-87
2021/05/23 11:18:21;;;;;;;2.62;1.10;;;;;;;21.13;39.44;100765.98;1684027;84;21082;-86
2021/05/23 11:21:07;;;;;;;1.15;0.70;;;;;;;21.38;39.88;100762.83;1679899;84;21086;-87
2021/05/23 11:23:51;;;;;;;3.35;0.90;;;;;;;21.50;39.10;100767.09;1650942;83;21370;-83
2021/05/23 11:26:23;;;;;;;1.72;0.80;;;;;;;21.44;39.12;100768.09;1638354;84;21129;-83
2021/05/23 11:28:58;;;;;;;2.15;0.70;;;;;;;21.33;39.20;100772.73;1682449;84;21764;-83
2021/05/23 11:31:40;;;;;;;3.72;1.00;;;;;;;21.23;39.37;100770.70;1664443;84;21169;-82
2021/05/23 11:34:07;;;;;;;1.82;0.98;;;;;;;21.08;39.56;100775.00;1657244;83;21151;-82
2021/05/23 11:36:43;;;;;;;3.15;1.00;;;;;;;21.09;39.54;100773.60;1658108;85;21151;-83
2021/05/23 11:39:18;;;;;;;1.65;1.12;;;;;;;21.16;39.23;100777.06;1641120;86;21134;-82
2021/05/23 11:41:48;;;;;;;2.50;0.90;;;;;;;21.18;39.30;100777.05;1626635;85;21201;-83